Terminal Aerodrome Forecast
Issued by NWS Binghamton, NY

Home | Current Version | Previous Version | Text Only | Print | Product List | Glossary On
Versions: 1 2 3 4 5 6 7 8 9 10 11 12 13 14 15 16 17 18 19
361
FTUS41 KBGM 030852 AAA
TAFAVP
TAF AMD
KAVP 030852Z 0309/0406 02003KT P6SM -SHRA OVC015
      TEMPO 0309/0313 -SHRA OVC007
     FM031500 35004KT P6SM BKN025=

USA.gov is the U.S. government's official web portal to all federal, state and local government web resources and services.